Time;durP1;ratioP1;P1;durP2;ratioP2;P2;SDS_P1;SDS_P2;PMS_P1;PMS_P2;Temp;Humidity;BMP_temperature;BMP_pressure;BME280_temperature;BME280_humidity;BME280_pressure;Samples;Min_cycle;Max_cycle;Signal;HPM_P1;HPM_P2
2024/02/29 00:01:08;;;;;;;26.65;2.72;;;;;;;7.84;100.00;99269.44;4965524;28;20042;-93
2024/02/29 00:04:34;;;;;;;24.80;3.40;;;;;;;7.84;100.00;99268.63;4953642;28;20562;-90
2024/02/29 00:07:08;;;;;;;15.95;2.63;;;;;;;7.76;100.00;99261.50;4965520;28;20034;-86
2024/02/29 00:18:21;;;;;;;22.83;3.00;;;;;;;7.50;100.00;99273.66;4936503;29;20059;-89
2024/02/29 00:21:17;;;;;;;21.65;3.63;;;;;;;7.54;100.00;99269.78;4884927;29;20085;-91
2024/02/29 00:35:18;;;;;;;16.98;2.42;;;;;;;7.36;100.00;99261.91;4978026;28;20867;-88
2024/02/29 00:37:46;;;;;;;29.15;4.80;;;;;;;7.31;100.00;99272.06;4997062;28;20097;-89
2024/02/29 00:40:36;;;;;;;18.40;3.55;;;;;;;7.31;100.00;99259.72;4977067;28;20045;-91
2024/02/29 00:43:11;;;;;;;24.30;3.13;;;;;;;7.16;100.00;99267.34;4987598;28;20034;-88
2024/02/29 00:46:08;;;;;;;15.15;3.40;;;;;;;7.25;100.00;99264.75;4979683;28;20173;-90
2024/02/29 00:49:47;;;;;;;15.77;2.25;;;;;;;7.20;100.00;99267.84;4987625;28;20045;-91
2024/02/29 00:57:00;;;;;;;18.50;2.47;;;;;;;7.04;100.00;99261.47;5021104;28;20525;-90
2024/02/29 01:00:01;;;;;;;22.20;2.90;;;;;;;7.03;100.00;99259.00;5018763;28;20065;-90
2024/02/29 01:06:34;;;;;;;25.02;3.53;;;;;;;6.94;100.00;99256.28;4989353;28;20042;-91
2024/02/29 01:09:46;;;;;;;20.35;3.03;;;;;;;6.93;100.00;99261.69;4966258;28;20034;-92
2024/02/29 01:12:12;;;;;;;22.73;2.85;;;;;;;6.91;100.00;99261.03;4957868;28;20428;-85
2024/02/29 01:15:36;;;;;;;;;;;;;;;;;;;;;
2024/02/29 01:18:05;;;;;;;22.95;3.97;;;;;;;6.78;100.00;99256.16;5001546;28;20037;-91
2024/02/29 01:20:39;;;;;;;17.40;3.03;;;;;;;6.84;100.00;99260.81;5013843;28;20061;-92
2024/02/29 01:41:08;;;;;;;21.23;3.08;;;;;;;6.50;100.00;99261.47;4910891;29;20388;-91
2024/02/29 01:48:26;;;;;;;22.15;3.63;;;;;;;6.52;100.00;99254.25;4926503;29;19963;-89
2024/02/29 01:50:55;;;;;;;19.15;3.03;;;;;;;6.51;100.00;99260.47;4894405;29;20087;-89
2024/02/29 01:53:47;;;;;;;23.42;3.60;;;;;;;6.55;100.00;99251.31;4920591;29;20046;-89
2024/02/29 02:09:30;;;;;;;23.30;3.13;;;;;;;6.37;100.00;99238.97;4941811;28;20027;-89
2024/02/29 02:13:05;;;;;;;19.67;3.15;;;;;;;6.35;100.00;99245.38;4942829;28;20033;-88
2024/02/29 02:15:56;;;;;;;21.27;2.55;;;;;;;6.35;100.00;99237.50;4923384;29;20032;-91
2024/02/29 02:18:32;;;;;;;;;;;;;;;;;;;;;
2024/02/29 02:21:12;;;;;;;18.88;2.90;;;;;;;6.31;100.00;99224.66;5003469;28;20423;-92
2024/02/29 02:23:58;;;;;;;21.75;2.25;;;;;;;6.23;100.00;99232.44;4958504;28;20026;-90
2024/02/29 02:34:49;;;;;;;19.25;2.75;;;;;;;6.13;100.00;99216.72;4937278;29;20031;-96
2024/02/29 02:38:03;;;;;;;21.45;4.00;;;;;;;6.05;100.00;99224.53;4943115;28;20420;-96
2024/02/29 02:41:44;;;;;;;18.65;2.80;;;;;;;5.97;100.00;99214.72;4934431;29;20047;-96
2024/02/29 02:44:45;;;;;;;18.75;2.97;;;;;;;5.98;100.00;99218.16;4907269;29;20709;-96
2024/02/29 02:48:05;;;;;;;18.92;2.40;;;;;;;5.94;100.00;99205.34;4945468;28;20140;-96
2024/02/29 03:02:39;;;;;;;20.05;2.85;;;;;;;5.82;100.00;99202.09;4986486;28;20061;-96
2024/02/29 03:13:39;;;;;;;13.95;2.00;;;;;;;5.71;100.00;99183.91;4976927;28;20062;-96
2024/02/29 03:16:29;;;;;;;13.98;2.45;;;;;;;5.68;100.00;99178.94;4996375;28;20455;-96
2024/02/29 03:19:16;;;;;;;16.42;2.38;;;;;;;5.61;100.00;99175.25;5001081;28;20039;-96
2024/02/29 03:22:13;;;;;;;12.95;2.10;;;;;;;5.67;100.00;99177.31;5000919;28;20060;-96
2024/02/29 03:25:03;;;;;;;14.65;2.75;;;;;;;5.63;100.00;99175.94;4983914;28;20033;-96
2024/02/29 03:32:12;;;;;;;16.40;3.03;;;;;;;5.51;100.00;99178.72;4996992;28;20060;-96
2024/02/29 03:39:35;;;;;;;17.13;1.92;;;;;;;5.40;100.00;99174.47;5000072;28;20029;-96
2024/02/29 03:58:45;;;;;;;;;;;;;;;;;;;;;
2024/02/29 04:06:42;;;;;;;12.95;2.72;;;;;;;5.42;100.00;99164.69;4954283;28;20036;-96
2024/02/29 04:10:03;;;;;;;14.88;3.30;;;;;;;5.48;100.00;99160.66;4933584;28;20038;-96
2024/02/29 04:12:58;;;;;;;23.75;2.95;;;;;;;5.42;100.00;99159.44;4949038;28;20058;-96
2024/02/29 04:23:45;;;;;;;12.13;1.65;;;;;;;5.30;100.00;99177.13;4999528;28;20057;-96
2024/02/29 04:26:16;;;;;;;16.40;2.60;;;;;;;5.26;100.00;99177.53;4994595;28;20069;-96
2024/02/29 04:29:09;;;;;;;12.02;2.22;;;;;;;5.24;100.00;99176.88;4996026;28;20037;-96
2024/02/29 04:32:07;;;;;;;20.25;2.80;;;;;;;5.19;100.00;99174.69;5001365;28;20706;-96
2024/02/29 04:39:07;;;;;;;21.20;2.42;;;;;;;5.12;100.00;99173.56;4959043;28;20027;-96
2024/02/29 04:42:08;;;;;;;22.05;2.63;;;;;;;5.17;100.00;99166.13;4947417;28;20043;-96
2024/02/29 04:49:35;;;;;;;15.80;2.30;;;;;;;5.16;100.00;99174.97;4967350;28;20038;-96
2024/02/29 04:52:27;;;;;;;13.88;2.10;;;;;;;5.08;100.00;99170.44;4928436;28;20120;-96
2024/02/29 04:55:19;;;;;;;16.60;2.20;;;;;;;5.11;100.00;99159.69;4951206;28;20055;-96
2024/02/29 05:01:47;;;;;;;11.57;1.77;;;;;;;5.08;100.00;99152.09;4923079;28;20051;-96
2024/02/29 05:05:06;;;;;;;17.55;2.60;;;;;;;5.11;100.00;99156.22;4931920;28;20082;-96
2024/02/29 05:12:38;;;;;;;19.30;3.53;;;;;;;5.13;100.00;99155.09;4913461;29;20056;-96
2024/02/29 05:18:58;;;;;;;18.85;3.08;;;;;;;4.99;100.00;99159.00;4904367;29;20098;-96
2024/02/29 05:29:04;;;;;;;22.70;2.35;;;;;;;5.03;100.00;99155.13;5014496;28;20129;-96
2024/02/29 05:31:48;;;;;;;22.05;2.13;;;;;;;5.00;100.00;99151.97;4965697;28;20123;-96
2024/02/29 05:34:23;;;;;;;10.75;1.73;;;;;;;4.99;100.00;99153.75;4968374;28;20044;-96
2024/02/29 05:36:52;;;;;;;15.05;2.38;;;;;;;5.00;100.00;99151.97;4970299;28;20046;-96
2024/02/29 05:39:20;;;;;;;20.27;2.47;;;;;;;5.04;100.00;99146.31;4981729;28;20631;-96
2024/02/29 05:41:52;;;;;;;29.33;3.40;;;;;;;5.01;100.00;99151.00;4972285;28;20387;-96
2024/02/29 05:44:27;;;;;;;16.90;2.20;;;;;;;5.03;100.00;99152.50;4951494;28;20077;-96
2024/02/29 05:47:26;;;;;;;11.30;2.08;;;;;;;5.07;100.00;99150.44;4985485;28;20045;-96
2024/02/29 05:49:56;;;;;;;9.10;2.30;;;;;;;4.95;100.00;99153.19;4989854;28;20182;-96
2024/02/29 05:52:25;;;;;;;15.15;2.13;;;;;;;4.97;100.00;99151.28;4964816;28;20037;-96
2024/02/29 05:54:54;;;;;;;21.52;2.28;;;;;;;4.99;100.00;99148.50;4952219;28;20515;-96
2024/02/29 05:57:24;;;;;;;21.88;3.05;;;;;;;4.92;100.00;99144.81;4938349;28;20093;-96
2024/02/29 06:00:17;;;;;;;16.73;1.98;;;;;;;4.94;100.00;99138.47;4943109;28;20065;-96
2024/02/29 06:03:16;;;;;;;17.40;2.42;;;;;;;4.94;100.00;99135.00;4972269;28;20128;-96
2024/02/29 06:05:58;;;;;;;;;;;;;;;;;;;;;
2024/02/29 06:08:53;;;;;;;20.83;2.15;;;;;;;4.76;100.00;99140.94;4957028;28;20104;-96
2024/02/29 06:11:24;;;;;;;15.70;2.50;;;;;;;4.78;100.00;99128.56;4977905;28;20030;-96
2024/02/29 06:13:56;;;;;;;13.82;2.15;;;;;;;4.71;100.00;99123.03;4959600;28;20125;-96
2024/02/29 06:16:26;;;;;;;18.80;2.60;;;;;;;4.69;100.00;99122.38;4946417;28;20130;-96
2024/02/29 06:19:03;;;;;;;19.95;2.35;;;;;;;4.75;100.00;99110.50;4956479;28;20084;-96
2024/02/29 06:22:12;;;;;;;10.73;2.17;;;;;;;4.67;100.00;99116.44;4966312;28;20085;-96
2024/02/29 06:24:58;;;;;;;15.02;2.10;;;;;;;4.69;100.00;99113.69;4993279;28;20034;-96
2024/02/29 06:31:08;;;;;;;19.63;2.53;;;;;;;4.59;100.00;99104.06;4982303;28;20084;-96
2024/02/29 06:33:44;;;;;;;22.70;2.50;;;;;;;4.64;100.00;99105.41;4954415;28;20038;-96
2024/02/29 06:36:20;;;;;;;17.57;2.93;;;;;;;4.61;100.00;99100.47;4962736;28;20085;-96
2024/02/29 06:38:50;;;;;;;21.75;2.75;;;;;;;4.56;100.00;99111.34;4963017;28;20486;-96
2024/02/29 06:41:21;;;;;;;19.65;4.22;;;;;;;4.58;100.00;99105.03;4947403;28;20052;-96
2024/02/29 06:47:18;;;;;;;16.08;2.30;;;;;;;4.49;100.00;99103.22;4974204;28;20038;-96
2024/02/29 06:50:06;;;;;;;16.45;2.63;;;;;;;4.55;100.00;99107.09;4961767;28;20042;-96
2024/02/29 06:56:24;;;;;;;12.38;1.65;;;;;;;4.43;100.00;99094.13;4959159;28;20038;-96
2024/02/29 06:59:03;;;;;;;16.60;2.13;;;;;;;4.44;100.00;99111.47;4951644;28;20121;-96
2024/02/29 07:01:43;;;;;;;12.93;1.95;;;;;;;4.39;100.00;99107.63;4968563;28;20125;-96
2024/02/29 07:04:32;;;;;;;19.40;2.00;;;;;;;4.45;100.00;99114.94;4980806;28;20058;-96
2024/02/29 07:07:03;;;;;;;20.10;2.65;;;;;;;4.39;100.00;99115.47;4977133;28;20124;-96
2024/02/29 07:09:32;;;;;;;16.55;2.38;;;;;;;4.36;100.00;99124.44;4949331;28;20048;-96
2024/02/29 07:12:02;;;;;;;16.02;1.92;;;;;;;4.33;100.00;99117.69;4951954;28;20030;-96
2024/02/29 07:14:52;;;;;;;22.00;2.40;;;;;;;4.36;100.00;99129.69;4950945;28;20044;-96
2024/02/29 07:17:54;;;;;;;22.40;3.60;;;;;;;4.36;100.00;99139.31;4947880;28;20034;-96
2024/02/29 07:20:41;;;;;;;11.75;1.85;;;;;;;4.28;100.00;99129.53;4948771;28;20138;-96
2024/02/29 07:23:24;;;;;;;17.15;2.25;;;;;;;4.25;100.00;99135.03;4946483;28;20069;-96
2024/02/29 07:25:56;;;;;;;12.07;2.00;;;;;;;4.18;100.00;99124.28;4955016;28;20030;-96
2024/02/29 07:32:33;;;;;;;18.77;2.85;;;;;;;4.24;100.00;99126.34;4990385;28;20030;-96
2024/02/29 07:35:29;;;;;;;18.13;1.95;;;;;;;4.24;100.00;99115.06;4976526;28;20494;-96
2024/02/29 07:38:31;;;;;;;14.45;2.13;;;;;;;4.30;100.00;99111.91;4944756;28;20042;-96
2024/02/29 07:41:26;;;;;;;18.15;3.70;;;;;;;4.29;100.00;99118.09;4943216;28;20636;-91
2024/02/29 07:44:07;;;;;;;11.48;1.65;;;;;;;4.15;100.00;99121.94;4990754;28;20042;-91
2024/02/29 07:46:46;;;;;;;14.57;2.78;;;;;;;4.19;100.00;99115.47;4959021;28;20034;-91
2024/02/29 07:49:21;;;;;;;;;;;;;;;4.20;100.00;99128.41;4942122;28;20022;-91
2024/02/29 07:52:37;;;;;;;20.45;1.77;;;;;;;4.27;100.00;99138.34;4988302;28;19933;-91
2024/02/29 07:55:06;;;;;;;16.00;2.33;;;;;;;4.31;100.00;99130.09;4969695;28;20852;-90
2024/02/29 07:58:22;;;;;;;11.73;1.75;;;;;;;4.39;100.00;99125.94;5002421;28;20364;-90
2024/02/29 08:00:48;;;;;;;12.70;1.70;;;;;;;4.41;100.00;99134.50;5000891;28;20435;-90
2024/02/29 08:06:46;;;;;;;14.63;1.55;;;;;;;4.45;100.00;99123.63;4988327;28;20042;-89
2024/02/29 08:09:13;;;;;;;16.23;3.20;;;;;;;4.52;100.00;99128.31;4973445;28;20056;-89
2024/02/29 08:11:39;;;;;;;10.88;1.73;;;;;;;4.51;100.00;99126.66;4992669;28;20029;-90
2024/02/29 08:14:33;;;;;;;14.30;1.95;;;;;;;4.66;100.00;99125.28;4972022;28;20405;-89
2024/02/29 08:16:59;;;;;;;13.63;2.08;;;;;;;4.70;100.00;99131.03;5007849;28;20042;-90
2024/02/29 08:19:25;;;;;;;12.48;2.17;;;;;;;4.80;100.00;99134.50;4998690;28;20484;-89
2024/02/29 08:21:50;;;;;;;10.82;1.45;;;;;;;4.88;100.00;99135.56;4989508;28;20038;-90
2024/02/29 08:24:19;;;;;;;13.80;1.92;;;;;;;4.87;100.00;99141.78;5020734;28;20022;-90
2024/02/29 08:26:45;;;;;;;9.50;2.05;;;;;;;4.98;100.00;99141.63;4984267;28;20046;-90
2024/02/29 08:29:13;;;;;;;10.85;1.90;;;;;;;5.05;100.00;99149.72;4986156;28;20377;-90
2024/02/29 08:32:06;;;;;;;14.60;2.28;;;;;;;5.13;100.00;99151.69;4962845;28;20503;-90
2024/02/29 08:38:34;;;;;;;13.65;1.55;;;;;;;5.14;100.00;99155.94;5004364;28;20034;-89
2024/02/29 08:41:26;;;;;;;18.55;2.35;;;;;;;5.24;100.00;99167.22;5009498;28;20037;-90
2024/02/29 08:43:54;;;;;;;12.20;1.60;;;;;;;5.23;100.00;99168.19;4999792;28;20049;-90
2024/02/29 08:46:20;;;;;;;9.05;1.38;;;;;;;5.29;100.00;99162.38;4975230;28;20108;-89
2024/02/29 08:49:12;;;;;;;14.20;2.03;;;;;;;5.48;100.00;99171.16;4967730;28;20041;-89
2024/02/29 08:51:37;;;;;;;11.80;1.85;;;;;;;5.45;100.00;99168.81;4980801;28;20053;-92
2024/02/29 08:54:03;;;;;;;12.82;1.33;;;;;;;5.36;100.00;99161.81;4985555;28;20041;-92
2024/02/29 09:00:55;;;;;;;8.73;1.50;;;;;;;5.61;100.00;99162.97;4944055;28;20042;-91
2024/02/29 09:04:00;;;;;;;8.43;1.10;;;;;;;5.67;100.00;99164.22;4957917;28;20034;-91
2024/02/29 09:07:14;;;;;;;11.48;1.55;;;;;;;5.75;100.00;99174.78;4978385;28;20037;-92
2024/02/29 09:13:38;;;;;;;8.52;1.52;;;;;;;5.89;100.00;99185.78;4944096;28;20026;-92
2024/02/29 09:16:13;;;;;;;9.18;1.45;;;;;;;5.82;100.00;99162.75;4949308;28;20480;-92
2024/02/29 09:18:39;;;;;;;7.97;1.10;;;;;;;5.96;100.00;99160.59;4973194;28;20034;-86
2024/02/29 09:21:55;;;;;;;6.32;1.30;;;;;;;6.06;100.00;99150.94;4969995;28;20030;-92
2024/02/29 09:24:46;;;;;;;10.27;0.93;;;;;;;6.11;100.00;99153.13;4970722;28;20030;-89
2024/02/29 09:27:12;;;;;;;4.65;1.13;;;;;;;6.21;100.00;99160.94;4957690;28;20476;-91
2024/02/29 09:29:38;;;;;;;10.07;2.15;;;;;;;6.33;100.00;99167.63;4983010;28;20031;-91
2024/02/29 09:32:24;;;;;;;4.57;0.85;;;;;;;6.32;100.00;99147.56;4959504;28;20042;-84
2024/02/29 09:34:50;;;;;;;7.88;1.35;;;;;;;6.29;100.00;99147.88;4958042;28;20026;-91
2024/02/29 09:37:32;;;;;;;5.45;1.08;;;;;;;6.22;100.00;99138.94;4956037;28;20545;-91
2024/02/29 09:40:04;;;;;;;4.82;0.82;;;;;;;6.31;100.00;99152.97;4967109;28;20038;-90
2024/02/29 09:42:32;;;;;;;7.10;0.98;;;;;;;6.28;100.00;99148.84;4976385;28;20038;-89
2024/02/29 09:44:58;;;;;;;4.72;1.08;;;;;;;6.26;100.00;99129.78;4950772;28;20038;-89
2024/02/29 09:47:24;;;;;;;6.97;1.35;;;;;;;6.32;100.00;99131.03;4963943;28;20061;-91
2024/02/29 09:49:50;;;;;;;6.90;1.00;;;;;;;6.35;100.00;99138.59;4998068;28;20029;-92
2024/02/29 09:52:17;;;;;;;7.38;1.00;;;;;;;6.37;100.00;99139.25;4934063;28;20037;-89
2024/02/29 09:55:22;;;;;;;7.70;0.80;;;;;;;6.44;100.00;99155.22;4948939;28;20176;-91
2024/02/29 09:58:01;;;;;;;6.50;1.27;;;;;;;6.38;100.00;99154.03;5021976;28;20125;-87
2024/02/29 10:00:52;;;;;;;3.83;1.00;;;;;;;6.44;100.00;99155.22;4981024;28;20037;-90
2024/02/29 10:07:19;;;;;;;3.67;1.10;;;;;;;6.44;100.00;99153.44;4946444;28;19918;-92
2024/02/29 10:09:45;;;;;;;6.18;0.98;;;;;;;6.51;100.00;99147.59;4999268;28;20033;-90
2024/02/29 10:12:21;;;;;;;3.60;0.70;;;;;;;6.55;100.00;99146.31;4973773;28;20061;-89
2024/02/29 10:14:47;;;;;;;7.22;0.95;;;;;;;6.57;100.00;99134.69;4997369;28;20030;-92
2024/02/29 10:17:13;;;;;;;6.88;0.70;;;;;;;6.73;100.00;99142.84;4980543;28;20037;-91
2024/02/29 10:20:16;;;;;;;9.70;0.73;;;;;;;6.81;100.00;99128.00;5008875;28;20034;-91
2024/02/29 10:23:11;;;;;;;8.20;0.90;;;;;;;6.90;100.00;99136.75;5006309;28;20368;-93
2024/02/29 10:25:43;;;;;;;6.38;1.05;;;;;;;6.96;100.00;99127.41;4970585;28;20423;-90
2024/02/29 10:28:21;;;;;;;8.50;0.80;;;;;;;7.03;100.00;99133.72;5006809;28;20351;-91
2024/02/29 10:31:14;;;;;;;6.32;1.02;;;;;;;7.06;100.00;99124.69;4994213;28;20124;-91
2024/02/29 10:33:55;;;;;;;7.72;1.27;;;;;;;7.03;100.00;99122.38;5000713;28;20038;-91
2024/02/29 10:36:22;;;;;;;6.18;1.92;;;;;;;7.07;100.00;99121.13;4977158;28;20469;-91
2024/02/29 10:38:51;;;;;;;9.77;1.20;;;;;;;7.12;100.00;99121.47;4985731;28;20136;-91
2024/02/29 10:41:31;;;;;;;5.32;0.80;;;;;;;7.16;100.00;99107.03;4983223;28;20048;-93
2024/02/29 10:44:20;;;;;;;8.73;1.10;;;;;;;7.24;100.00;99106.25;4987410;28;20045;-92
2024/02/29 10:46:55;;;;;;;9.02;1.33;;;;;;;7.23;100.00;99101.97;5002915;28;20060;-94
2024/02/29 10:53:30;;;;;;;12.38;1.38;;;;;;;7.45;100.00;99089.28;5023647;28;20034;-92
2024/02/29 11:00:27;;;;;;;6.45;1.00;;;;;;;7.60;100.00;99084.25;4986238;28;20114;-94
2024/02/29 11:02:54;;;;;;;7.97;0.88;;;;;;;7.68;100.00;99091.31;4967914;28;20492;-91
2024/02/29 11:05:23;;;;;;;7.25;1.33;;;;;;;7.80;100.00;99086.63;4972055;28;20045;-88
2024/02/29 11:07:54;;;;;;;8.45;1.52;;;;;;;7.99;100.00;99072.34;4949754;28;20049;-92
2024/02/29 11:10:29;;;;;;;8.73;1.40;;;;;;;8.09;100.00;99061.66;4956790;28;20027;-93
2024/02/29 11:13:03;;;;;;;3.67;1.02;;;;;;;8.18;100.00;99060.72;4943041;28;20042;-93
2024/02/29 11:15:29;;;;;;;7.63;0.90;;;;;;;8.18;100.00;99052.81;4957336;28;20718;-91
2024/02/29 11:18:01;;;;;;;6.88;1.23;;;;;;;8.16;100.00;99054.78;4955574;28;20035;-96
2024/02/29 11:20:27;;;;;;;6.85;1.05;;;;;;;8.12;100.00;99044.75;4974138;28;20030;-90
2024/02/29 11:23:43;;;;;;;5.30;0.88;;;;;;;7.99;100.00;99048.69;4948921;28;20037;-92
2024/02/29 11:26:12;;;;;;;9.45;1.35;;;;;;;8.12;100.00;99058.69;4957048;28;20031;-93
2024/02/29 11:28:39;;;;;;;6.70;1.05;;;;;;;8.19;100.00;99049.19;4974337;28;20081;-87
2024/02/29 11:31:16;;;;;;;11.25;1.02;;;;;;;8.16;100.00;99057.41;4958487;28;20113;-89
2024/02/29 11:33:46;;;;;;;9.70;1.00;;;;;;;7.99;100.00;99053.94;4971496;28;20038;-93
2024/02/29 11:36:44;;;;;;;9.75;1.30;;;;;;;7.82;100.00;99055.69;4954577;28;20034;-92
2024/02/29 11:39:21;;;;;;;7.25;1.25;;;;;;;7.60;100.00;99052.69;4936266;28;20043;-87
2024/02/29 11:41:56;;;;;;;6.93;1.73;;;;;;;7.42;100.00;99053.59;4969449;28;20033;-91
2024/02/29 11:44:31;;;;;;;14.95;2.17;;;;;;;7.37;100.00;99053.28;4941956;28;20089;-91
2024/02/29 11:47:10;;;;;;;11.20;1.67;;;;;;;7.69;100.00;99059.59;4951530;28;20041;-92
2024/02/29 11:49:40;;;;;;;5.75;0.90;;;;;;;7.88;100.00;99062.97;4940398;28;20089;-94
2024/02/29 11:52:10;;;;;;;10.40;1.35;;;;;;;7.98;100.00;99056.72;4944385;28;20093;-92
2024/02/29 11:54:36;;;;;;;6.45;1.35;;;;;;;7.96;100.00;99056.91;4977300;28;20081;-90
2024/02/29 11:57:06;;;;;;;6.65;1.00;;;;;;;7.93;100.00;99050.13;4991268;28;20038;-87
2024/02/29 11:59:59;;;;;;;11.43;1.20;;;;;;;7.90;100.00;99049.66;4986222;28;20037;-93
2024/02/29 12:02:32;;;;;;;12.50;1.27;;;;;;;7.99;100.00;99056.56;4995131;28;20117;-89
2024/02/29 12:04:58;;;;;;;4.63;1.10;;;;;;;8.06;100.00;99067.25;4995830;28;20026;-87
2024/02/29 12:07:27;;;;;;;3.15;0.25;;;;;;;7.84;100.00;99056.38;4986585;28;20042;-88
2024/02/29 12:09:53;;;;;;;0.95;0.30;;;;;;;7.46;100.00;99075.16;4976605;28;20549;-89
2024/02/29 12:12:22;;;;;;;2.30;0.30;;;;;;;7.02;100.00;99078.72;5004721;28;20053;-91
2024/02/29 12:15:35;;;;;;;0.40;0.20;;;;;;;6.61;100.00;99056.44;5009543;28;20045;-92
2024/02/29 12:18:10;;;;;;;1.92;0.20;;;;;;;6.36;100.00;99063.28;4964942;28;20045;-92
2024/02/29 12:20:37;;;;;;;1.45;0.20;;;;;;;6.27;100.00;99065.03;4988596;28;20034;-88
2024/02/29 12:23:03;;;;;;;1.85;0.35;;;;;;;6.20;100.00;99056.94;4987960;28;20061;-92
2024/02/29 12:25:29;;;;;;;2.90;0.40;;;;;;;6.24;100.00;99053.03;4992333;28;20037;-91
2024/02/29 12:27:58;;;;;;;1.42;0.30;;;;;;;6.35;100.00;99043.28;5010017;28;20041;-91
2024/02/29 12:30:49;;;;;;;4.57;0.40;;;;;;;6.58;100.00;99033.94;4991616;28;20065;-93
2024/02/29 12:33:16;;;;;;;3.42;0.50;;;;;;;6.82;100.00;99029.00;4997971;28;20591;-92
2024/02/29 12:36:39;;;;;;;3.70;0.38;;;;;;;7.11;100.00;99027.00;4992755;28;20053;-91
2024/02/29 12:39:16;;;;;;;4.47;0.70;;;;;;;7.20;100.00;99010.31;4994530;28;20041;-93
2024/02/29 12:41:49;;;;;;;5.28;0.63;;;;;;;7.32;100.00;99011.69;4995003;28;20038;-93
2024/02/29 12:44:43;;;;;;;8.13;0.70;;;;;;;7.29;100.00;99004.09;4971543;28;20041;-91
2024/02/29 12:47:22;;;;;;;2.28;0.70;;;;;;;7.28;100.00;98997.19;5008477;28;20030;-93
2024/02/29 12:49:53;;;;;;;2.90;1.05;;;;;;;7.24;100.00;98995.06;5008943;28;20018;-94
2024/02/29 12:52:57;;;;;;;2.97;0.73;;;;;;;7.28;100.00;98996.38;4991873;28;20041;-90
2024/02/29 12:55:24;;;;;;;6.22;0.85;;;;;;;7.34;100.00;98987.88;4962599;28;20042;-91
2024/02/29 12:57:56;;;;;;;4.82;0.93;;;;;;;7.62;100.00;99005.19;4954663;28;20035;-92
2024/02/29 13:00:56;;;;;;;5.88;1.15;;;;;;;7.72;100.00;99020.81;4957141;28;20419;-88
2024/02/29 13:03:26;;;;;;;5.97;0.93;;;;;;;7.28;100.00;99012.13;4949990;28;20056;-92
2024/02/29 13:05:55;;;;;;;4.82;0.77;;;;;;;6.95;100.00;99005.78;4982037;28;20026;-87
2024/02/29 13:08:27;;;;;;;6.25;1.25;;;;;;;6.65;100.00;99007.91;4996858;28;20053;-89
2024/02/29 13:10:53;;;;;;;6.20;0.95;;;;;;;6.42;100.00;99008.41;4996141;28;20030;-87
2024/02/29 13:13:30;;;;;;;7.78;0.85;;;;;;;6.24;100.00;99003.19;5004624;28;20388;-89
2024/02/29 13:16:03;;;;;;;13.10;1.70;;;;;;;6.16;100.00;99014.41;4991254;28;20021;-92
2024/02/29 13:18:34;;;;;;;12.38;1.95;;;;;;;6.02;100.00;99017.56;4978208;28;20041;-90
2024/02/29 13:21:00;;;;;;;4.03;1.13;;;;;;;5.87;100.00;99006.75;5004546;28;20084;-89
2024/02/29 13:23:27;;;;;;;5.47;0.90;;;;;;;5.82;100.00;98999.34;5010860;28;20044;-87
2024/02/29 13:25:54;;;;;;;8.70;1.90;;;;;;;5.82;100.00;98994.94;4986472;28;20034;-90
2024/02/29 13:28:20;;;;;;;9.25;1.45;;;;;;;5.83;100.00;98986.09;4979137;28;20515;-87
2024/02/29 13:30:49;;;;;;;7.18;1.15;;;;;;;5.84;100.00;98976.44;4998546;28;20038;-90
2024/02/29 13:33:18;;;;;;;9.63;1.60;;;;;;;5.78;100.00;98990.94;4975838;28;20121;-87
2024/02/29 13:35:49;;;;;;;8.50;1.50;;;;;;;5.71;100.00;98967.13;4990298;28;20032;-88
2024/02/29 13:38:18;;;;;;;11.85;1.30;;;;;;;5.69;100.00;98989.22;4995499;28;20025;-88
2024/02/29 13:40:44;;;;;;;12.82;1.20;;;;;;;5.55;100.00;98986.16;4982544;28;20025;-88
2024/02/29 13:43:14;;;;;;;8.43;1.08;;;;;;;5.50;100.00;98988.38;4998292;28;20101;-96
2024/02/29 13:45:46;;;;;;;;;;;;;;;5.62;100.00;98981.16;4975873;28;20046;-94
2024/02/29 13:48:18;;;;;;;20.42;2.95;;;;;;;5.89;100.00;98963.66;4982220;28;19948;-96
2024/02/29 13:51:00;;;;;;;8.15;2.45;;;;;;;6.20;100.00;98963.31;4975740;28;20037;-96
2024/02/29 13:53:26;;;;;;;11.90;2.55;;;;;;;6.41;100.00;98966.56;4981433;28;20128;-96
2024/02/29 13:56:00;;;;;;;14.70;2.03;;;;;;;6.55;100.00;98958.13;4973910;28;20062;-96
2024/02/29 13:58:58;;;;;;;11.68;1.88;;;;;;;6.64;100.00;98951.09;4982567;28;20045;-96
2024/02/29 14:01:25;;;;;;;6.18;1.40;;;;;;;6.57;100.00;98948.31;5030751;28;20030;-96
2024/02/29 14:03:57;;;;;;;6.60;1.42;;;;;;;6.62;100.00;98965.38;5011410;28;20042;-96
2024/02/29 14:06:31;;;;;;;10.32;1.60;;;;;;;6.54;100.00;98987.16;5000932;28;20061;-96
2024/02/29 14:09:05;;;;;;;9.82;1.05;;;;;;;6.29;100.00;98997.50;4989234;28;20037;-90
2024/02/29 14:11:39;;;;;;;3.53;0.57;;;;;;;5.59;100.00;98987.50;4980559;28;20030;-91
2024/02/29 14:14:08;;;;;;;7.10;0.65;;;;;;;5.17;100.00;98978.38;5009549;28;20372;-89
2024/02/29 14:16:34;;;;;;;2.72;0.55;;;;;;;5.00;100.00;98966.84;4989527;28;20121;-91
2024/02/29 14:19:36;;;;;;;5.55;0.55;;;;;;;4.99;100.00;98959.97;4997968;28;20033;-91
2024/02/29 14:22:04;;;;;;;1.20;0.20;;;;;;;4.90;100.00;98958.22;4995649;28;20045;-89
2024/02/29 14:24:31;;;;;;;1.17;0.40;;;;;;;4.91;100.00;98942.38;4989951;28;20077;-92
2024/02/29 14:27:34;;;;;;;0.98;0.30;;;;;;;5.06;100.00;98940.09;4999011;28;20033;-92
2024/02/29 14:30:13;;;;;;;0.32;0.15;;;;;;;5.37;100.00;98936.31;4975290;28;20057;-91
2024/02/29 14:33:20;;;;;;;1.98;0.60;;;;;;;5.71;100.00;98930.44;4991781;28;20117;-92
2024/02/29 14:35:52;;;;;;;3.10;0.40;;;;;;;5.89;100.00;98915.66;5011177;28;20096;-91
2024/02/29 14:38:28;;;;;;;1.30;0.40;;;;;;;5.95;100.00;98907.19;4968255;28;20041;-91
2024/02/29 14:41:06;;;;;;;1.67;0.70;;;;;;;6.13;100.00;98914.22;4989351;28;20117;-89
2024/02/29 14:43:35;;;;;;;3.90;0.70;;;;;;;6.08;100.00;98919.94;4991028;28;20042;-90
2024/02/29 14:46:12;;;;;;;6.50;0.90;;;;;;;5.98;100.00;98913.91;4974552;28;20129;-87
2024/02/29 14:48:42;;;;;;;2.17;0.50;;;;;;;6.02;100.00;98912.66;4988401;28;20033;-90
2024/02/29 14:51:16;;;;;;;3.80;0.73;;;;;;;5.95;100.00;98913.25;5020861;28;20113;-91
2024/02/29 14:53:56;;;;;;;4.25;0.70;;;;;;;6.03;100.00;98914.28;4983959;28;20073;-91
2024/02/29 14:56:47;;;;;;;5.40;0.60;;;;;;;6.23;100.00;98920.19;4974932;28;20120;-91
2024/02/29 14:59:14;;;;;;;10.07;1.88;;;;;;;6.32;100.00;98913.22;5012431;28;20037;-91
2024/02/29 15:01:41;;;;;;;5.38;0.50;;;;;;;6.55;100.00;98913.50;4994015;28;20038;-90
2024/02/29 15:04:12;;;;;;;5.88;0.60;;;;;;;6.66;100.00;98901.06;4971590;28;20042;-90
2024/02/29 15:07:27;;;;;;;2.28;0.60;;;;;;;6.80;100.00;98894.41;4976047;28;20048;-89
2024/02/29 15:10:07;;;;;;;1.25;0.20;;;;;;;6.75;100.00;98894.88;5011828;28;20029;-92
2024/02/29 15:12:45;;;;;;;1.42;0.30;;;;;;;6.78;100.00;98902.44;4993565;28;20042;-91
2024/02/29 15:15:12;;;;;;;2.00;0.63;;;;;;;6.70;100.00;98891.91;4995406;28;20030;-87
2024/02/29 15:17:56;;;;;;;4.43;0.70;;;;;;;6.74;100.00;98900.28;5007241;28;20092;-92
2024/02/29 15:20:48;;;;;;;4.05;0.82;;;;;;;6.66;100.00;98888.75;4977352;28;20137;-90
2024/02/29 15:23:17;;;;;;;4.13;0.75;;;;;;;6.81;100.00;98906.56;4984882;28;20134;-91
2024/02/29 15:25:47;;;;;;;2.67;0.50;;;;;;;6.78;100.00;98897.19;5002690;28;20092;-95
2024/02/29 15:28:40;;;;;;;5.15;1.10;;;;;;;6.67;100.00;98895.66;4978798;28;20401;-96
2024/02/29 15:31:14;;;;;;;5.30;1.15;;;;;;;6.53;100.00;98899.69;4976501;28;20034;-96
2024/02/29 15:33:43;;;;;;;5.88;1.00;;;;;;;6.40;100.00;98905.34;4972017;28;20050;-94
2024/02/29 15:36:33;;;;;;;6.97;1.88;;;;;;;6.20;100.00;98883.75;4989285;28;20053;-95
2024/02/29 15:39:12;;;;;;;5.72;0.80;;;;;;;6.23;100.00;98899.19;4979563;28;20044;-94
2024/02/29 15:45:08;;;;;;;4.18;0.73;;;;;;;6.11;100.00;98892.56;4992562;28;20030;-95
2024/02/29 15:47:37;;;;;;;3.28;0.60;;;;;;;6.04;100.00;98893.19;4975997;28;20038;-95
2024/02/29 15:50:12;;;;;;;8.32;1.20;;;;;;;6.02;100.00;98892.47;4990786;28;20035;-95
2024/02/29 15:52:40;;;;;;;6.63;0.90;;;;;;;5.97;100.00;98892.13;4976576;28;20053;-95
2024/02/29 15:55:13;;;;;;;5.95;1.15;;;;;;;5.93;100.00;98883.72;4997753;28;20069;-95
2024/02/29 16:05:59;;;;;;;1.98;0.50;;;;;;;5.71;100.00;98883.25;4937157;28;20031;-95
2024/02/29 16:08:40;;;;;;;4.95;0.60;;;;;;;5.65;100.00;98889.09;4913844;28;20039;-95